Buoy 52609

sailwx.info

Track history (hours):
 
Tides and Currents Weather Stations Pressure Air Temp Water Temp Dewpoint Dewpoint Depression Visibility Wind Speed Wind Dir Waves Ship Positions

Drifting buoy 52609

Last reported at 2016-Mar-22 07:00 UTC. Time now 2016-May-25 07:18 UTC.
Position N 09°49' E 106°30'.
Warning: this ship's position is months out of date.

Date/timePositionNaut miles runAvg speedWind from/ knotsBaromVisibWave heightAir tempDewpointWater temp
2016-Mar-22 07:00N 09°49' E 106°30'1 0.6
2016-Mar-22 06:00N 09°50' E 106°30'1 0.1
2016-Mar-21 23:00N 09°49' E 106°31'0 0.0 24.8
2016-Mar-21 19:00N 09°49' E 106°30'0 0.0 25.2
2016-Mar-21 14:00N 09°49' E 106°30'0 0.0 26.2
2016-Mar-21 10:00N 09°49' E 106°30'0 0.0 29.7
2016-Mar-21 09:00N 09°49' E 106°30'0 0.1 31.1
2016-Mar-21 07:00N 09°49' E 106°30'0 0.0
2016-Mar-20 23:00N 09°49' E 106°30'0 0.0 24.0
2016-Mar-20 18:00N 09°49' E 106°30'0 0.0 25.1
2016-Mar-20 07:00N 09°49' E 106°30'0 0.0 35.3
2016-Mar-20 06:00N 09°49' E 106°30'0 0.0 35.2
2016-Mar-19 23:00N 09°49' E 106°31'0 0.0 25.4
2016-Mar-19 22:00N 09°49' E 106°31'0 0.0 25.4
2016-Mar-19 21:00N 09°49' E 106°31'0 0.0 25.1
2016-Mar-19 18:00N 09°49' E 106°31'0 0.0 26.2
2016-Mar-19 14:00N 09°49' E 106°31'0 0.0 26.0
2016-Mar-18 22:00N 09°49' E 106°30'0 0.0 23.7
2016-Mar-18 18:00N 09°49' E 106°30'0 0.0 24.1
2016-Mar-18 14:00N 09°49' E 106°30'0 0.1 25.0
2016-Mar-18 11:00N 09°49' E 106°30'0 0.0 28.1
2016-Mar-17 23:00N 09°49' E 106°31'0 0.4 23.3
2016-Mar-17 22:00N 09°49' E 106°30'0 0.1 23.5
2016-Mar-17 18:00N 09°49' E 106°30'1 0.1 24.8
2016-Mar-17 14:00N 09°49' E 106°31'0 0.2 25.6
2016-Mar-17 11:00N 09°49' E 106°30'1 0.1 27.8
2016-Mar-16 22:00N 09°49' E 106°31'0 0.0 24.3
2016-Mar-16 21:00N 09°49' E 106°31'0 0.0 24.8
2016-Mar-16 19:00N 09°49' E 106°31'1 0.1 24.9
2016-Mar-16 12:00N 09°49' E 106°31'1 0.1 27.2
2016-Mar-16 06:00N 09°49' E 106°30'0 0.0 35.8
2016-Mar-16 05:00N 09°49' E 106°30'1 0.1 35.7
2016-Mar-15 22:00N 09°49' E 106°30'1 0.6 24.6
2016-Mar-15 21:00N 09°49' E 106°30'0 0.2 24.7
2016-Mar-15 19:00N 09°49' E 106°31'0 0.0 25.0
2016-Mar-15 18:00N 09°49' E 106°31'1 0.2 25.3
2016-Mar-15 13:00N 09°50' E 106°32'1 1.2 27.0
2016-Mar-15 12:00N 09°49' E 106°30'0 0.1 27.1
2016-Mar-15 06:00N 09°49' E 106°30'1 0.1 29.4
2016-Mar-14 22:00N 09°49' E 106°31'1 0.2 26.5
2016-Mar-14 19:00N 09°49' E 106°31'0 0.0 26.7
2016-Mar-14 06:00N 09°49' E 106°31'0 0.0 33.1
2016-Mar-13 19:00N 09°49' E 106°30'1 0.1 24.5
2016-Mar-13 14:00N 09°49' E 106°31'0 0.0 25.4
2016-Mar-13 11:00N 09°49' E 106°31'1 0.2 26.1
2016-Mar-13 07:00N 09°49' E 106°30'3 0.4 30.1
2016-Mar-12 23:00N 09°49' E 106°34'4 3.8 28.2
2016-Mar-12 22:00N 09°46' E 106°36'0 0.0 28.3
2016-Mar-12 21:00N 09°46' E 106°36'2 1.1 28.2
2016-Mar-12 19:00N 09°48' E 106°35'   28.1
Track history (hours):
 
Tides and Currents Weather Stations Pressure Air Temp Water Temp Dewpoint Dewpoint Depression Visibility Wind Speed Wind Dir Waves Ship Positions

Drifting buoy 52609

Last reported at 2016-Mar-22 07:00 UTC. Time now 2016-May-25 07:18 UTC.
Position N 09°49' E 106°30'.
Warning: this ship's position is months out of date.

Date/timePositionNaut miles runAvg speedWind from/ knotsBaromVisibWave heightAir tempDewpointWater temp
2016-Mar-22 07:00N 09°49' E 106°30'1 0.6
2016-Mar-22 06:00N 09°50' E 106°30'1 0.1
2016-Mar-21 23:00N 09°49' E 106°31'0 0.0 24.8
2016-Mar-21 19:00N 09°49' E 106°30'0 0.0 25.2
2016-Mar-21 14:00N 09°49' E 106°30'0 0.0 26.2
2016-Mar-21 10:00N 09°49' E 106°30'0 0.0 29.7
2016-Mar-21 09:00N 09°49' E 106°30'0 0.1 31.1
2016-Mar-21 07:00N 09°49' E 106°30'0 0.0
2016-Mar-20 23:00N 09°49' E 106°30'0 0.0 24.0
2016-Mar-20 18:00N 09°49' E 106°30'0 0.0 25.1
2016-Mar-20 07:00N 09°49' E 106°30'0 0.0 35.3
2016-Mar-20 06:00N 09°49' E 106°30'0 0.0 35.2
2016-Mar-19 23:00N 09°49' E 106°31'0 0.0 25.4
2016-Mar-19 22:00N 09°49' E 106°31'0 0.0 25.4
2016-Mar-19 21:00N 09°49' E 106°31'0 0.0 25.1
2016-Mar-19 18:00N 09°49' E 106°31'0 0.0 26.2
2016-Mar-19 14:00N 09°49' E 106°31'0 0.0 26.0
2016-Mar-18 22:00N 09°49' E 106°30'0 0.0 23.7
2016-Mar-18 18:00N 09°49' E 106°30'0 0.0 24.1
2016-Mar-18 14:00N 09°49' E 106°30'0 0.1 25.0
2016-Mar-18 11:00N 09°49' E 106°30'0 0.0 28.1
2016-Mar-17 23:00N 09°49' E 106°31'0 0.4 23.3
2016-Mar-17 22:00N 09°49' E 106°30'0 0.1 23.5
2016-Mar-17 18:00N 09°49' E 106°30'1 0.1 24.8
2016-Mar-17 14:00N 09°49' E 106°31'0 0.2 25.6
2016-Mar-17 11:00N 09°49' E 106°30'1 0.1 27.8
2016-Mar-16 22:00N 09°49' E 106°31'0 0.0 24.3
2016-Mar-16 21:00N 09°49' E 106°31'0 0.0 24.8
2016-Mar-16 19:00N 09°49' E 106°31'1 0.1 24.9
2016-Mar-16 12:00N 09°49' E 106°31'1 0.1 27.2
2016-Mar-16 06:00N 09°49' E 106°30'0 0.0 35.8
2016-Mar-16 05:00N 09°49' E 106°30'1 0.1 35.7
2016-Mar-15 22:00N 09°49' E 106°30'1 0.6 24.6
2016-Mar-15 21:00N 09°49' E 106°30'0 0.2 24.7
2016-Mar-15 19:00N 09°49' E 106°31'0 0.0 25.0
2016-Mar-15 18:00N 09°49' E 106°31'1 0.2 25.3
2016-Mar-15 13:00N 09°50' E 106°32'1 1.2 27.0
2016-Mar-15 12:00N 09°49' E 106°30'0 0.1 27.1
2016-Mar-15 06:00N 09°49' E 106°30'1 0.1 29.4
2016-Mar-14 22:00N 09°49' E 106°31'1 0.2 26.5
2016-Mar-14 19:00N 09°49' E 106°31'0 0.0 26.7
2016-Mar-14 06:00N 09°49' E 106°31'0 0.0 33.1
2016-Mar-13 19:00N 09°49' E 106°30'1 0.1 24.5
2016-Mar-13 14:00N 09°49' E 106°31'0 0.0 25.4
2016-Mar-13 11:00N 09°49' E 106°31'1 0.2 26.1
2016-Mar-13 07:00N 09°49' E 106°30'3 0.4 30.1
2016-Mar-12 23:00N 09°49' E 106°34'4 3.8 28.2
2016-Mar-12 22:00N 09°46' E 106°36'0 0.0 28.3
2016-Mar-12 21:00N 09°46' E 106°36'2 1.1 28.2
2016-Mar-12 19:00N 09°48' E 106°35'   28.1

Dump ship's entire track history